createdAt,value
2019-03-26T06:08:43.319Z,136.00
2019-03-26T06:24:43.143Z,164.00
2019-03-26T06:25:43.131Z,168.00
2019-03-26T06:36:05.441Z,280.00
2019-03-26T06:37:17.360Z,300.00
2019-03-26T06:42:27.391Z,316.00
2019-03-26T06:43:27.386Z,300.00
2019-03-26T06:44:27.372Z,296.00
2019-03-26T06:45:27.365Z,300.00
2019-03-26T06:46:27.364Z,312.00
2019-03-26T06:50:27.303Z,396.00
2019-03-26T06:51:27.303Z,392.00
2019-03-26T06:52:27.280Z,380.00
2019-03-26T06:54:27.266Z,376.00
2019-03-26T06:55:27.293Z,384.00
2019-03-26T06:56:27.239Z,400.00
2019-03-26T06:57:35.343Z,404.00
2019-03-26T07:00:49.588Z,384.00
2019-03-26T07:01:49.502Z,340.00
2019-03-26T07:02:49.504Z,324.00
2019-03-26T07:03:49.528Z,320.00
2019-03-26T07:04:49.474Z,312.00
2019-03-26T07:05:49.469Z,308.00
2019-03-26T07:06:49.451Z,296.00
2019-03-26T07:07:49.439Z,280.00
2019-03-26T07:08:49.432Z,280.00
2019-03-26T07:09:49.432Z,276.00
2019-03-26T07:10:49.404Z,276.00
2019-03-26T07:11:49.395Z,284.00
2019-03-26T07:12:49.387Z,324.00
2019-03-26T07:13:49.387Z,376.00
2019-03-26T07:14:49.370Z,436.00
2019-03-26T07:15:49.365Z,468.00
2019-03-26T07:16:49.337Z,508.00
2019-03-26T07:17:52.314Z,548.00
2019-03-26T07:18:49.391Z,600.00
2019-03-26T07:19:49.327Z,648.00
2019-03-26T07:20:49.326Z,632.00
2019-03-26T07:21:50.097Z,660.00
2019-03-26T07:22:49.281Z,660.00
2019-03-26T07:23:49.262Z,680.00
2019-03-26T07:26:49.250Z,732.00
2019-03-26T07:27:49.225Z,724.00
2019-03-26T07:28:49.199Z,744.00
2019-03-26T07:29:49.192Z,748.00
2019-03-26T07:30:49.178Z,752.00
2019-03-26T07:31:49.177Z,784.00
2019-03-26T07:32:49.172Z,804.00
2019-03-26T07:33:49.141Z,804.00
2019-03-26T07:34:49.132Z,832.00
2019-03-26T07:35:49.137Z,796.00
2019-03-26T07:36:49.106Z,796.00
2019-03-26T07:37:49.118Z,844.00
2019-03-26T07:38:49.105Z,864.00
2019-03-26T07:39:49.104Z,900.00
2019-03-26T07:40:49.150Z,908.00
2019-03-26T07:41:49.084Z,924.00
2019-03-26T07:42:49.041Z,896.00
2019-03-26T07:43:49.027Z,960.00
2019-03-26T07:44:49.078Z,992.00
2019-03-26T07:45:49.033Z,1044.00
2019-03-26T07:46:48.994Z,1024.00
2019-03-26T07:47:48.996Z,1092.00
2019-03-26T07:48:48.999Z,1208.00
2019-03-26T07:49:48.962Z,1284.00
2019-03-26T07:50:48.981Z,1188.00
2019-03-26T07:51:48.945Z,1204.00
2019-03-26T07:52:48.953Z,1228.00
2019-03-26T07:53:48.916Z,1208.00
2019-03-26T07:54:48.906Z,1284.00
2019-03-26T07:55:48.904Z,1280.00
2019-03-26T07:56:48.885Z,1232.00
2019-03-26T07:57:48.883Z,1316.00
2019-03-26T07:58:48.897Z,1344.00
2019-03-26T07:59:48.911Z,1412.00
2019-03-26T08:00:48.854Z,1372.00
2019-03-26T08:01:48.824Z,1288.00
2019-03-26T08:02:48.810Z,1248.00
2019-03-26T08:03:48.799Z,1320.00
2019-03-26T08:04:48.791Z,1304.00
2019-03-26T08:05:48.786Z,1164.00
2019-03-26T08:06:48.762Z,1056.00
2019-03-26T08:07:58.135Z,960.00
2019-03-26T08:09:10.663Z,848.00
2019-03-26T08:10:10.622Z,804.00
2019-03-26T08:11:10.611Z,816.00
2019-03-26T08:12:10.588Z,800.00
2019-03-26T08:13:10.592Z,708.00
2019-03-26T08:14:10.581Z,652.00
2019-03-26T08:15:10.578Z,656.00
2019-03-26T08:16:10.578Z,744.00
2019-03-26T08:17:10.635Z,920.00
2019-03-26T08:18:10.521Z,948.00
2019-03-26T08:19:10.541Z,840.00
2019-03-26T08:20:12.563Z,748.00
2019-03-26T08:21:11.507Z,644.00
2019-03-26T08:22:11.474Z,652.00
2019-03-26T08:23:10.452Z,588.00
2019-03-26T08:24:10.459Z,580.00
2019-03-26T08:25:10.513Z,728.00
2019-03-26T08:26:10.428Z,1048.00
2019-03-26T08:27:10.424Z,1100.00
2019-03-26T08:28:10.404Z,1056.00
2019-03-26T08:29:10.385Z,1068.00
2019-03-26T08:30:10.377Z,1040.00
2019-03-26T08:31:10.360Z,1008.00
2019-03-26T08:32:10.372Z,1028.00
2019-03-26T08:33:10.357Z,1144.00
2019-03-26T08:34:10.330Z,1216.00
2019-03-26T08:35:10.346Z,1320.00
2019-03-26T08:36:10.310Z,1368.00
2019-03-26T08:37:10.300Z,1404.00
2019-03-26T08:38:12.994Z,1468.00
2019-03-26T08:39:10.275Z,1468.00
2019-03-26T08:40:10.298Z,1436.00
2019-03-26T08:41:10.252Z,1448.00
2019-03-26T08:42:10.239Z,1412.00
2019-03-26T08:43:10.247Z,1448.00
2019-03-26T08:44:10.237Z,1472.00
2019-03-26T08:45:10.239Z,1476.00
2019-03-26T08:46:12.550Z,1432.00
2019-03-26T08:47:10.219Z,1312.00
2019-03-26T08:48:10.183Z,1276.00
2019-03-26T08:49:10.168Z,1260.00
2019-03-26T08:50:10.159Z,1292.00
2019-03-26T08:51:10.155Z,1364.00
2019-03-26T08:52:10.126Z,1428.00
2019-03-26T08:53:10.117Z,1476.00
2019-03-26T08:54:10.117Z,1440.00
2019-03-26T08:55:10.098Z,1504.00
2019-03-26T08:56:10.089Z,1552.00
2019-03-26T08:57:10.124Z,1516.00
2019-03-26T08:58:11.068Z,1440.00
2019-03-26T08:59:10.065Z,1452.00
2019-03-26T09:00:10.035Z,1504.00
2019-03-26T09:01:10.024Z,1460.00
2019-03-26T09:02:10.057Z,1456.00
2019-03-26T09:03:10.007Z,1496.00
2019-03-26T09:04:10.012Z,1496.00
2019-03-26T09:05:10.001Z,1428.00
2019-03-26T09:06:09.961Z,1420.00
2019-03-26T09:07:11.158Z,1508.00
2019-03-26T09:08:09.957Z,1596.00
2019-03-26T09:09:09.940Z,1600.00
2019-03-26T09:10:09.916Z,1584.00
2019-03-26T09:11:09.934Z,1548.00
2019-03-26T09:12:09.899Z,1516.00
2019-03-26T09:13:09.895Z,1580.00
2019-03-26T09:14:09.879Z,1620.00
2019-03-26T09:31:43.443Z,2176.00
2019-03-26T09:32:43.444Z,2140.00
2019-03-26T09:33:43.409Z,2040.00
2019-03-26T09:34:43.401Z,1992.00
2019-03-26T09:35:43.381Z,1940.00
2019-03-26T09:36:43.379Z,1848.00
2019-03-26T09:37:43.356Z,1784.00
2019-03-26T09:38:43.361Z,1788.00
2019-03-26T09:39:43.334Z,1824.00
2019-03-26T09:40:43.327Z,1796.00
2019-03-26T09:41:43.321Z,1736.00
2019-03-26T09:42:43.314Z,1720.00
2019-03-26T09:43:43.295Z,1716.00
2019-03-26T09:44:43.289Z,1752.00
2019-03-26T09:45:43.278Z,1820.00
2019-03-26T09:46:43.268Z,2036.00
2019-03-26T09:47:43.255Z,2076.00
2019-03-26T09:48:43.236Z,2188.00
2019-03-26T09:49:43.232Z,2168.00
2019-03-26T09:50:43.213Z,2188.00
2019-03-26T09:51:43.213Z,2200.00
2019-03-26T09:52:43.193Z,2212.00
2019-03-26T09:53:43.186Z,2232.00
2019-03-26T09:54:43.167Z,2176.00
2019-03-26T09:55:43.165Z,2140.00
2019-03-26T09:56:43.148Z,2208.00
2019-03-26T09:57:43.786Z,2296.00
2019-03-26T09:58:43.220Z,2356.00
2019-03-26T09:59:43.127Z,2300.00
2019-03-26T10:00:43.199Z,2332.00
2019-03-26T10:01:43.168Z,2456.00
2019-03-26T10:02:43.661Z,2604.00
2019-03-26T10:03:43.091Z,2516.00
2019-03-26T10:04:43.068Z,2476.00
2019-03-26T10:05:43.054Z,2464.00
2019-03-26T10:06:43.040Z,2356.00
2019-03-26T10:07:43.027Z,2316.00
2019-03-26T10:08:52.232Z,2364.00
2019-03-26T10:10:04.646Z,2208.00
2019-03-26T10:11:04.633Z,1976.00
2019-03-26T10:12:04.609Z,1780.00
2019-03-26T10:13:04.600Z,1600.00
2019-03-26T10:14:04.578Z,1372.00
2019-03-26T10:15:04.607Z,1244.00
2019-03-26T10:16:04.557Z,1220.00
2019-03-26T10:17:04.558Z,1168.00
2019-03-26T10:18:04.596Z,1080.00
2019-03-26T10:19:04.573Z,1136.00
2019-03-26T10:20:04.527Z,1204.00
2019-03-26T10:21:04.515Z,1132.00
2019-03-26T10:22:04.514Z,1056.00
2019-03-26T10:23:04.490Z,912.00
2019-03-26T10:24:04.489Z,872.00
2019-03-26T10:25:04.464Z,912.00
2019-03-26T10:26:04.468Z,828.00
2019-03-26T10:27:04.436Z,764.00
2019-03-26T10:28:04.423Z,744.00
2019-03-26T10:29:18.844Z,756.00
2019-03-26T10:30:33.615Z,916.00
2019-03-26T10:31:33.625Z,1024.00
2019-03-26T10:32:33.589Z,1072.00
2019-03-26T10:33:33.590Z,1132.00
2019-03-26T10:34:36.415Z,1204.00
2019-03-26T10:35:33.561Z,1344.00
2019-03-26T10:36:33.551Z,1612.00
2019-03-26T10:37:33.556Z,1928.00
2019-03-26T10:38:33.523Z,2124.00
2019-03-26T10:39:33.549Z,2152.00
2019-03-26T10:40:33.523Z,2324.00
2019-03-26T10:41:33.489Z,2336.00
2019-03-26T10:42:33.485Z,2248.00
2019-03-26T10:43:33.487Z,2148.00
2019-03-26T10:44:33.491Z,2012.00
2019-03-26T10:45:33.446Z,1984.00
2019-03-26T10:46:33.456Z,1896.00
2019-03-26T10:47:33.463Z,1760.00
2019-03-26T10:48:33.407Z,1780.00
2019-03-26T10:49:33.406Z,1860.00
2019-03-26T10:50:33.392Z,1948.00
2019-03-26T10:51:33.459Z,2008.00
2019-03-26T10:52:55.461Z,2124.00
2019-03-26T10:53:55.429Z,2428.00
2019-03-26T10:54:55.468Z,2632.00
2019-03-26T10:55:55.429Z,2736.00
2019-03-26T10:56:55.405Z,2784.00
2019-03-26T10:57:55.405Z,2812.00
2019-03-26T10:58:55.374Z,2780.00
2019-03-26T10:59:55.365Z,2768.00
2019-03-26T11:00:55.355Z,2700.00
2019-03-26T11:01:55.343Z,2656.00
2019-03-26T11:02:55.352Z,2544.00
2019-03-26T11:03:55.418Z,2528.00
2019-03-26T11:04:55.338Z,2452.00
2019-03-26T11:05:55.340Z,2288.00
2019-03-26T11:06:55.300Z,2244.00
2019-03-26T11:07:55.292Z,2240.00
2019-03-26T11:08:55.298Z,2224.00
2019-03-26T11:09:55.260Z,2000.00
2019-03-26T11:10:55.248Z,1812.00
2019-03-26T11:11:55.238Z,1804.00
2019-03-26T11:12:55.225Z,1936.00
2019-03-26T11:13:55.239Z,2220.00
2019-03-26T11:14:55.208Z,2284.00
2019-03-26T11:15:55.209Z,2292.00
2019-03-26T11:16:55.198Z,2296.00
2019-03-26T11:17:55.236Z,2232.00
2019-03-26T11:18:56.173Z,2144.00
2019-03-26T11:19:55.176Z,2100.00
2019-03-26T11:21:02.244Z,2052.00
2019-03-26T11:22:21.302Z,2096.00
2019-03-26T11:23:21.285Z,2120.00
2019-03-26T11:24:21.270Z,2088.00
2019-03-26T11:25:21.258Z,2080.00
2019-03-26T11:26:21.310Z,2144.00
2019-03-26T11:27:21.234Z,2176.00
2019-03-26T11:28:21.249Z,2084.00
2019-03-26T11:29:21.251Z,2020.00
2019-03-26T11:30:21.209Z,1752.00
2019-03-26T11:31:21.186Z,1704.00
2019-03-26T11:32:21.175Z,1704.00
2019-03-26T11:33:21.171Z,1696.00
2019-03-26T11:34:21.155Z,1760.00
2019-03-26T11:35:21.189Z,1920.00
2019-03-26T11:36:21.132Z,1972.00
2019-03-26T11:37:21.139Z,2040.00
2019-03-26T11:38:21.115Z,2176.00
2019-03-26T11:39:32.038Z,2300.00
2019-03-26T11:40:42.586Z,2464.00
2019-03-26T11:41:42.552Z,2364.00
2019-03-26T11:42:42.661Z,2304.00
2019-03-26T11:43:42.539Z,2328.00
2019-03-26T11:44:42.646Z,2392.00
2019-03-26T11:45:42.525Z,2364.00
2019-03-26T11:46:42.506Z,2216.00
2019-03-26T11:47:42.483Z,2280.00
2019-03-26T11:48:42.473Z,2460.00
2019-03-26T11:49:42.483Z,2672.00
2019-03-26T11:50:42.466Z,2936.00
2019-03-26T11:51:42.449Z,2944.00
2019-03-26T11:52:42.427Z,2832.00
2019-03-26T11:53:42.428Z,2584.00
2019-03-26T11:54:42.412Z,2220.00
2019-03-26T11:55:42.428Z,1748.00
2019-03-26T11:56:42.389Z,1388.00
2019-03-26T11:57:42.393Z,1232.00
2019-03-26T11:58:42.371Z,1112.00
2019-03-26T11:59:42.415Z,1092.00
2019-03-26T12:00:42.351Z,1084.00
2019-03-26T12:01:42.344Z,1164.00
2019-03-26T12:02:42.318Z,1324.00
2019-03-26T12:03:42.313Z,1436.00
2019-03-26T12:04:42.298Z,1560.00
2019-03-26T12:05:42.292Z,1772.00
2019-03-26T12:06:42.313Z,1908.00
2019-03-26T12:07:43.020Z,2060.00
2019-03-26T12:08:42.271Z,2276.00
2019-03-26T12:09:46.568Z,2292.00
2019-03-26T12:10:42.237Z,2140.00
2019-03-26T12:11:42.243Z,2024.00
2019-03-26T12:12:42.222Z,2108.00
2019-03-26T12:13:42.203Z,2168.00
2019-03-26T12:14:42.185Z,2188.00
2019-03-26T12:15:42.177Z,2116.00
2019-03-26T12:16:42.165Z,2056.00
2019-03-26T12:17:42.191Z,1948.00
2019-03-26T12:18:42.270Z,1944.00
2019-03-26T12:19:42.165Z,2040.00
2019-03-26T12:20:42.136Z,2280.00
2019-03-26T12:21:42.126Z,2340.00
2019-03-26T12:22:42.113Z,2400.00
2019-03-26T12:23:42.108Z,2464.00
2019-03-26T12:24:42.097Z,2532.00
2019-03-26T12:25:42.094Z,2760.00
2019-03-26T12:26:42.062Z,2776.00
2019-03-26T12:27:42.082Z,2660.00
2019-03-26T12:28:42.041Z,2600.00
2019-03-26T12:29:43.050Z,2540.00
2019-03-26T12:30:42.011Z,2444.00
2019-03-26T12:31:42.019Z,2388.00
2019-03-26T12:32:42.000Z,2328.00
2019-03-26T12:33:41.992Z,2252.00
2019-03-26T12:34:41.979Z,2172.00
2019-03-26T12:35:41.959Z,2324.00
2019-03-26T12:36:41.967Z,2600.00
2019-03-26T12:37:41.968Z,2740.00
2019-03-26T12:38:41.929Z,2756.00
2019-03-26T12:39:44.262Z,2600.00
2019-03-26T12:40:41.922Z,2388.00
2019-03-26T12:41:41.914Z,2604.00
2019-03-26T12:42:41.892Z,2620.00
2019-03-26T12:43:42.199Z,2632.00
2019-03-26T12:44:41.861Z,2536.00
2019-03-26T12:45:41.842Z,2396.00
2019-03-26T12:46:41.841Z,2280.00
2019-03-26T12:47:41.826Z,2216.00
2019-03-26T12:48:41.844Z,2208.00
2019-03-26T12:49:41.817Z,2240.00
2019-03-26T12:50:41.827Z,2288.00
2019-03-26T12:51:41.788Z,2384.00
2019-03-26T12:52:41.791Z,2568.00
2019-03-26T12:53:41.757Z,2792.00
2019-03-26T12:54:41.774Z,2796.00
2019-03-26T12:55:41.748Z,2808.00
2019-03-26T12:56:41.726Z,2972.00
2019-03-26T12:57:41.711Z,3328.00
2019-03-26T12:58:41.722Z,3436.00
2019-03-26T12:59:41.716Z,3468.00
2019-03-26T13:00:41.753Z,3372.00
2019-03-26T13:01:41.673Z,3152.00
2019-03-26T13:02:41.742Z,2784.00
2019-03-26T13:03:41.646Z,2556.00
2019-03-26T13:04:41.693Z,2492.00
2019-03-26T13:05:41.625Z,2544.00
2019-03-26T13:06:41.612Z,2644.00
2019-03-26T13:07:41.612Z,2700.00
2019-03-26T13:08:41.585Z,2720.00
2019-03-26T13:09:42.045Z,2728.00
2019-03-26T13:10:52.877Z,2704.00
2019-03-26T13:12:03.642Z,2752.00
2019-03-26T13:13:03.622Z,2680.00
2019-03-26T13:14:03.608Z,2588.00
2019-03-26T13:15:03.618Z,2520.00
2019-03-26T13:16:03.586Z,2516.00
2019-03-26T13:17:03.594Z,2516.00
2019-03-26T13:18:04.860Z,2504.00
2019-03-26T13:19:03.563Z,2480.00
2019-03-26T13:20:03.553Z,2468.00
2019-03-26T13:21:03.556Z,2400.00
2019-03-26T13:22:03.575Z,2300.00
2019-03-26T13:23:03.715Z,2328.00
2019-03-26T13:24:25.594Z,2144.00
2019-03-26T13:25:25.557Z,1904.00
2019-03-26T13:26:25.564Z,1712.00
2019-03-26T13:27:25.540Z,1636.00
2019-03-26T13:28:25.527Z,1580.00
2019-03-26T13:29:25.537Z,1284.00
2019-03-26T13:30:25.509Z,1104.00
2019-03-26T13:31:25.506Z,1016.00
2019-03-26T13:32:25.481Z,928.00
2019-03-26T13:33:25.481Z,760.00
2019-03-26T13:34:25.486Z,612.00
2019-03-26T13:35:25.447Z,556.00
2019-03-26T13:36:25.453Z,536.00
2019-03-26T13:37:25.431Z,560.00
2019-03-26T13:38:25.417Z,500.00
2019-03-26T13:39:25.427Z,428.00
2019-03-26T13:40:27.439Z,416.00
2019-03-26T13:41:25.391Z,492.00
2019-03-26T13:42:25.373Z,560.00
2019-03-26T13:43:25.377Z,608.00
2019-03-26T13:44:25.368Z,616.00
2019-03-26T13:45:25.351Z,568.00
2019-03-26T13:46:25.350Z,532.00
2019-03-26T13:47:25.325Z,508.00
2019-03-26T13:48:25.320Z,508.00
2019-03-26T13:49:25.335Z,520.00
2019-03-26T13:50:25.312Z,520.00
2019-03-26T13:51:25.279Z,524.00
2019-03-26T13:52:25.273Z,556.00
2019-03-26T13:53:25.256Z,604.00
2019-03-26T13:54:25.252Z,644.00
2019-03-26T13:55:25.234Z,704.00
2019-03-26T13:56:25.222Z,760.00
2019-03-26T13:57:25.214Z,788.00
2019-03-26T13:58:25.198Z,744.00
2019-03-26T13:59:25.188Z,736.00
2019-03-26T14:00:25.189Z,724.00
2019-03-26T14:01:25.180Z,736.00
2019-03-26T14:02:25.186Z,688.00
2019-03-26T14:03:25.165Z,712.00
2019-03-26T14:04:25.141Z,688.00
2019-03-26T14:05:25.139Z,664.00
2019-03-26T14:06:25.122Z,668.00
2019-03-26T14:07:25.106Z,688.00
2019-03-26T14:08:25.091Z,776.00
2019-03-26T14:09:25.104Z,924.00
2019-03-26T14:10:25.088Z,876.00
2019-03-26T14:11:25.102Z,860.00
2019-03-26T14:12:25.053Z,988.00
2019-03-26T14:13:25.051Z,960.00
2019-03-26T14:14:25.035Z,1012.00
2019-03-26T14:15:25.222Z,1076.00
2019-03-26T14:16:25.013Z,1064.00
2019-03-26T14:17:25.014Z,1116.00
2019-03-26T14:18:24.999Z,1148.00
2019-03-26T14:19:24.997Z,1264.00
2019-03-26T14:20:24.999Z,1176.00
2019-03-26T14:21:24.981Z,1180.00
2019-03-26T14:22:24.959Z,1164.00
2019-03-26T14:23:24.945Z,1176.00
2019-03-26T14:24:24.930Z,1096.00
2019-03-26T14:25:24.916Z,1040.00
2019-03-26T14:26:24.916Z,912.00
2019-03-26T14:27:24.902Z,804.00
2019-03-26T14:28:25.551Z,880.00
2019-03-26T14:29:24.981Z,980.00
2019-03-26T14:30:24.866Z,1040.00
2019-03-26T14:31:24.848Z,1040.00
2019-03-26T14:32:24.843Z,956.00
2019-03-26T14:33:24.825Z,900.00
2019-03-26T14:34:24.879Z,1016.00
2019-03-26T14:35:24.873Z,1156.00
2019-03-26T14:36:24.791Z,1176.00
2019-03-26T14:37:24.899Z,1132.00
2019-03-26T14:38:24.784Z,1080.00
2019-03-26T14:39:24.779Z,980.00
2019-03-26T14:40:24.780Z,808.00
2019-03-26T14:41:24.774Z,560.00
2019-03-26T14:42:24.746Z,444.00
2019-03-26T14:43:24.720Z,436.00
2019-03-26T14:44:24.707Z,468.00
2019-03-26T14:45:24.696Z,512.00
2019-03-26T14:46:24.715Z,544.00
2019-03-26T14:47:24.681Z,528.00
2019-03-26T14:48:24.668Z,556.00
2019-03-26T14:49:24.662Z,592.00
2019-03-26T14:50:24.640Z,564.00
2019-03-26T14:51:24.634Z,504.00
2019-03-26T14:52:24.658Z,476.00
2019-03-26T14:53:24.618Z,504.00
2019-03-26T14:54:24.603Z,508.00
2019-03-26T14:55:24.590Z,520.00
2019-03-26T14:56:24.574Z,580.00
2019-03-26T14:57:24.575Z,644.00
2019-03-26T14:58:24.572Z,692.00
2019-03-26T14:59:24.564Z,784.00
2019-03-26T15:14:56.397Z,412.00
2019-03-26T15:15:56.403Z,432.00
2019-03-26T15:16:56.387Z,448.00
2019-03-26T15:17:56.358Z,420.00
2019-03-26T15:18:56.382Z,364.00
2019-03-26T15:19:56.335Z,340.00
2019-03-26T15:20:56.327Z,320.00
2019-03-26T15:21:56.316Z,308.00
2019-03-26T15:22:58.039Z,300.00
2019-03-26T15:23:56.281Z,328.00
2019-03-26T15:24:59.356Z,340.00
2019-03-26T15:25:56.270Z,276.00
2019-03-26T15:26:56.258Z,248.00
2019-03-26T15:27:56.279Z,244.00
2019-03-26T15:28:56.245Z,240.00
2019-03-26T15:29:56.227Z,244.00
2019-03-26T15:30:56.220Z,244.00
2019-03-26T15:31:56.199Z,240.00
2019-03-26T15:32:56.195Z,236.00
2019-03-26T15:33:56.181Z,236.00
2019-03-26T15:34:56.168Z,240.00
2019-03-26T15:35:56.157Z,232.00
2019-03-26T15:36:56.150Z,228.00
2019-03-26T15:37:56.143Z,224.00
2019-03-26T15:38:56.124Z,220.00
2019-03-26T15:39:56.134Z,228.00
2019-03-26T15:40:56.105Z,240.00
2019-03-26T15:41:56.092Z,240.00
2019-03-26T15:42:56.079Z,256.00
2019-03-26T15:43:56.060Z,276.00
2019-03-26T15:44:56.102Z,304.00
2019-03-26T15:45:56.047Z,324.00
2019-03-26T15:46:56.035Z,352.00
2019-03-26T15:47:56.021Z,388.00
2019-03-26T15:48:56.017Z,432.00
2019-03-26T15:49:56.034Z,480.00
2019-03-26T15:50:56.002Z,516.00
2019-03-26T15:51:55.976Z,532.00
2019-03-26T15:52:56.684Z,540.00
2019-03-26T15:53:55.970Z,544.00
2019-03-26T15:54:55.949Z,532.00
2019-03-26T15:55:55.935Z,504.00
2019-03-26T15:56:55.946Z,472.00
2019-03-26T15:57:55.907Z,440.00
2019-03-26T15:58:55.899Z,392.00
2019-03-26T15:59:55.882Z,376.00
2019-03-26T16:00:55.916Z,380.00
2019-03-26T16:01:55.868Z,376.00
2019-03-26T16:02:55.854Z,372.00
2019-03-26T16:03:55.846Z,380.00
2019-03-26T16:04:55.839Z,372.00
2019-03-26T16:05:55.830Z,376.00
2019-03-26T16:06:55.811Z,392.00
2019-03-26T16:07:55.799Z,408.00
2019-03-26T16:08:55.812Z,412.00
2019-03-26T16:09:55.772Z,424.00
2019-03-26T16:10:55.785Z,392.00
2019-03-26T16:11:55.747Z,352.00
2019-03-26T16:12:55.748Z,336.00
2019-03-26T16:13:55.736Z,348.00
2019-03-26T16:14:55.720Z,372.00
2019-03-26T16:16:55.756Z,436.00
2019-03-26T16:17:55.717Z,428.00
2019-03-26T16:18:55.691Z,408.00
2019-03-26T16:19:55.661Z,416.00
2019-03-26T16:20:55.667Z,424.00
2019-03-26T16:21:55.706Z,428.00
2019-03-26T16:22:55.640Z,424.00
2019-03-26T16:23:55.627Z,452.00
2019-03-26T16:24:55.618Z,452.00
2019-03-26T16:25:55.604Z,440.00
2019-03-26T16:26:55.586Z,448.00
2019-03-26T16:27:55.578Z,432.00
2019-03-26T16:28:55.561Z,416.00
2019-03-26T16:29:55.569Z,404.00
2019-03-26T16:30:55.555Z,392.00
2019-03-26T16:31:55.528Z,384.00
2019-03-26T16:32:55.516Z,380.00
2019-03-26T16:33:55.509Z,376.00
2019-03-26T16:34:55.499Z,360.00
2019-03-26T16:35:55.501Z,348.00
2019-03-26T16:36:59.748Z,328.00
2019-03-26T16:37:55.461Z,308.00
2019-03-26T16:38:55.461Z,288.00
2019-03-26T16:39:55.453Z,272.00
2019-03-26T16:40:55.427Z,256.00
2019-03-26T16:41:55.418Z,240.00
2019-03-26T16:42:55.403Z,224.00
2019-03-26T16:43:55.394Z,216.00
2019-03-26T16:44:55.382Z,196.00
2019-03-26T16:45:55.387Z,180.00
2019-03-26T16:46:55.360Z,164.00
2019-03-26T16:47:55.358Z,156.00
2019-03-26T16:48:55.338Z,144.00
2019-03-26T16:49:55.323Z,132.00
2019-03-26T16:50:55.326Z,124.00
2019-03-26T16:51:55.317Z,124.00
2019-03-26T16:52:55.311Z,124.00
2019-03-26T16:58:55.227Z,100.00
2019-03-26T17:02:55.180Z,80.00
2019-03-26T17:06:55.135Z,68.00
2019-03-26T17:12:03.181Z,84.00
2019-03-26T17:16:17.373Z,72.00
2019-03-26T17:17:17.361Z,68.00
2019-03-26T17:19:17.345Z,68.00
2019-03-26T17:20:17.325Z,64.00
2019-03-26T17:22:17.301Z,60.00
2019-03-26T17:31:17.278Z,36.00
2019-03-26T17:32:17.222Z,32.00
2019-03-26T17:35:17.147Z,32.00
2019-03-26T17:38:17.127Z,28.00
2019-03-26T17:42:17.828Z,24.00
2019-03-26T17:43:17.065Z,24.00
2019-03-26T17:45:17.034Z,20.00
2019-03-26T17:49:16.991Z,20.00
2019-03-26T17:54:16.932Z,8.00
2019-03-26T17:56:16.914Z,8.00
2019-03-26T17:57:16.894Z,8.00
2019-03-26T18:02:16.843Z,4.00
